sensor_id;sensor_type;location;lat;lon;timestamp;temperature;humidity
31391;DHT22;18022;45.492;11.548;2022-11-13T00:01:59;10.70;99.90
31391;DHT22;18022;45.492;11.548;2022-11-13T00:04:25;10.70;99.90
31391;DHT22;18022;45.492;11.548;2022-11-13T00:06:50;10.80;99.90
31391;DHT22;18022;45.492;11.548;2022-11-13T00:09:16;10.70;99.90
31391;DHT22;18022;45.492;11.548;2022-11-13T00:11:42;10.70;99.90
31391;DHT22;18022;45.492;11.548;2022-11-13T00:14:07;10.60;99.90
31391;DHT22;18022;45.492;11.548;2022-11-13T00:16:33;10.60;99.90
31391;DHT22;18022;45.492;11.548;2022-11-13T00:18:59;10.60;99.90
31391;DHT22;18022;45.492;11.548;2022-11-13T00:21:25;10.50;99.90
31391;DHT22;18022;45.492;11.548;2022-11-13T00:23:54;10.50;99.90
31391;DHT22;18022;45.492;11.548;2022-11-13T00:26:25;10.50;99.90
31391;DHT22;18022;45.492;11.548;2022-11-13T00:28:59;10.50;99.90
31391;DHT22;18022;45.492;11.548;2022-11-13T00:31:27;10.50;99.90
31391;DHT22;18022;45.492;11.548;2022-11-13T00:33:53;10.40;99.90
31391;DHT22;18022;45.492;11.548;2022-11-13T00:36:24;10.40;99.90
31391;DHT22;18022;45.492;11.548;2022-11-13T00:38:50;10.30;99.90
31391;DHT22;18022;45.492;11.548;2022-11-13T00:41:16;10.30;99.90
31391;DHT22;18022;45.492;11.548;2022-11-13T00:43:42;10.20;99.90
31391;DHT22;18022;45.492;11.548;2022-11-13T00:46:08;10.20;99.90
31391;DHT22;18022;45.492;11.548;2022-11-13T00:48:35;10.20;99.90
31391;DHT22;18022;45.492;11.548;2022-11-13T00:51:02;10.20;99.90
31391;DHT22;18022;45.492;11.548;2022-11-13T00:53:28;10.10;99.90
31391;DHT22;18022;45.492;11.548;2022-11-13T00:55:54;10.20;99.90
31391;DHT22;18022;45.492;11.548;2022-11-13T00:58:19;10.10;99.90
31391;DHT22;18022;45.492;11.548;2022-11-13T01:00:46;10.00;99.90
31391;DHT22;18022;45.492;11.548;2022-11-13T01:03:13;10.10;99.90
31391;DHT22;18022;45.492;11.548;2022-11-13T01:05:41;10.20;99.90
31391;DHT22;18022;45.492;11.548;2022-11-13T01:08:08;10.30;99.90
31391;DHT22;18022;45.492;11.548;2022-11-13T01:10:38;10.30;99.90
31391;DHT22;18022;45.492;11.548;2022-11-13T01:13:04;10.10;99.90
31391;DHT22;18022;45.492;11.548;2022-11-13T01:15:30;10.20;99.90
31391;DHT22;18022;45.492;11.548;2022-11-13T01:17:56;10.00;99.90
31391;DHT22;18022;45.492;11.548;2022-11-13T01:20:23;10.00;99.90
31391;DHT22;18022;45.492;11.548;2022-11-13T01:22:49;10.00;99.90
31391;DHT22;18022;45.492;11.548;2022-11-13T01:25:15;10.10;99.90
31391;DHT22;18022;45.492;11.548;2022-11-13T01:27:41;10.10;99.90
31391;DHT22;18022;45.492;11.548;2022-11-13T01:30:07;10.10;99.90
31391;DHT22;18022;45.492;11.548;2022-11-13T01:32:33;10.00;99.90
31391;DHT22;18022;45.492;11.548;2022-11-13T01:34:59;9.70;99.90
31391;DHT22;18022;45.492;11.548;2022-11-13T01:37:24;9.70;99.90
31391;DHT22;18022;45.492;11.548;2022-11-13T01:39:50;9.60;99.90
31391;DHT22;18022;45.492;11.548;2022-11-13T01:42:16;9.50;99.90
31391;DHT22;18022;45.492;11.548;2022-11-13T01:44:50;9.40;99.90
31391;DHT22;18022;45.492;11.548;2022-11-13T01:47:17;9.40;99.90
31391;DHT22;18022;45.492;11.548;2022-11-13T01:49:45;9.50;99.90
31391;DHT22;18022;45.492;11.548;2022-11-13T01:52:19;9.50;99.90
31391;DHT22;18022;45.492;11.548;2022-11-13T01:54:46;9.50;99.90
31391;DHT22;18022;45.492;11.548;2022-11-13T01:57:14;9.50;99.90
31391;DHT22;18022;45.492;11.548;2022-11-13T01:59:45;9.50;99.90
31391;DHT22;18022;45.492;11.548;2022-11-13T02:02:12;9.50;99.90
31391;DHT22;18022;45.492;11.548;2022-11-13T02:04:37;9.40;99.90
31391;DHT22;18022;45.492;11.548;2022-11-13T02:07:07;9.40;99.90
31391;DHT22;18022;45.492;11.548;2022-11-13T02:09:39;9.40;99.90
31391;DHT22;18022;45.492;11.548;2022-11-13T02:12:09;9.40;99.90
31391;DHT22;18022;45.492;11.548;2022-11-13T02:14:37;9.40;99.90
31391;DHT22;18022;45.492;11.548;2022-11-13T02:17:07;9.40;99.90
31391;DHT22;18022;45.492;11.548;2022-11-13T02:19:37;9.40;99.90
31391;DHT22;18022;45.492;11.548;2022-11-13T02:24:40;9.40;99.90
31391;DHT22;18022;45.492;11.548;2022-11-13T02:27:10;9.40;99.90
31391;DHT22;18022;45.492;11.548;2022-11-13T02:29:37;9.20;99.90
31391;DHT22;18022;45.492;11.548;2022-11-13T02:32:03;9.20;99.90
31391;DHT22;18022;45.492;11.548;2022-11-13T02:34:29;9.20;99.90
31391;DHT22;18022;45.492;11.548;2022-11-13T02:36:54;9.20;99.90
31391;DHT22;18022;45.492;11.548;2022-11-13T02:39:20;9.30;99.90
31391;DHT22;18022;45.492;11.548;2022-11-13T02:41:46;9.20;99.90
31391;DHT22;18022;45.492;11.548;2022-11-13T02:44:11;9.20;99.90
31391;DHT22;18022;45.492;11.548;2022-11-13T02:46:37;9.10;99.90
31391;DHT22;18022;45.492;11.548;2022-11-13T02:49:03;8.80;99.90
31391;DHT22;18022;45.492;11.548;2022-11-13T02:51:29;8.70;99.90
31391;DHT22;18022;45.492;11.548;2022-11-13T02:53:55;8.80;99.90
31391;DHT22;18022;45.492;11.548;2022-11-13T02:56:21;8.90;99.90
31391;DHT22;18022;45.492;11.548;2022-11-13T02:58:47;9.10;99.90
31391;DHT22;18022;45.492;11.548;2022-11-13T03:01:13;9.30;99.90
31391;DHT22;18022;45.492;11.548;2022-11-13T03:03:38;9.20;99.90
31391;DHT22;18022;45.492;11.548;2022-11-13T03:06:04;9.30;99.90
31391;DHT22;18022;45.492;11.548;2022-11-13T03:08:30;9.30;99.90
31391;DHT22;18022;45.492;11.548;2022-11-13T03:10:56;9.00;99.90
31391;DHT22;18022;45.492;11.548;2022-11-13T03:13:22;9.00;99.90
31391;DHT22;18022;45.492;11.548;2022-11-13T03:15:47;9.00;99.90
31391;DHT22;18022;45.492;11.548;2022-11-13T03:18:13;9.00;99.90
31391;DHT22;18022;45.492;11.548;2022-11-13T03:20:41;9.10;99.90
31391;DHT22;18022;45.492;11.548;2022-11-13T03:23:08;9.10;99.90
31391;DHT22;18022;45.492;11.548;2022-11-13T03:25:33;9.10;99.90
31391;DHT22;18022;45.492;11.548;2022-11-13T03:28:00;9.10;99.90
31391;DHT22;18022;45.492;11.548;2022-11-13T03:30:26;8.60;99.90
31391;DHT22;18022;45.492;11.548;2022-11-13T03:32:53;8.30;99.90
31391;DHT22;18022;45.492;11.548;2022-11-13T03:35:20;8.20;99.90
31391;DHT22;18022;45.492;11.548;2022-11-13T03:37:46;8.30;99.90
31391;DHT22;18022;45.492;11.548;2022-11-13T03:40:12;8.30;99.90
31391;DHT22;18022;45.492;11.548;2022-11-13T03:42:37;8.30;99.90
31391;DHT22;18022;45.492;11.548;2022-11-13T03:45:03;8.10;99.90
31391;DHT22;18022;45.492;11.548;2022-11-13T03:47:29;8.20;99.90
31391;DHT22;18022;45.492;11.548;2022-11-13T03:49:55;8.30;99.90
31391;DHT22;18022;45.492;11.548;2022-11-13T03:52:20;8.40;99.90
31391;DHT22;18022;45.492;11.548;2022-11-13T03:54:46;8.40;99.90
31391;DHT22;18022;45.492;11.548;2022-11-13T03:57:12;8.30;99.90
31391;DHT22;18022;45.492;11.548;2022-11-13T03:59:37;8.20;99.90
31391;DHT22;18022;45.492;11.548;2022-11-13T04:02:03;8.30;99.90
31391;DHT22;18022;45.492;11.548;2022-11-13T04:04:29;8.30;99.90
31391;DHT22;18022;45.492;11.548;2022-11-13T04:06:54;8.40;99.90
31391;DHT22;18022;45.492;11.548;2022-11-13T04:09:20;8.40;99.90
31391;DHT22;18022;45.492;11.548;2022-11-13T04:11:46;8.50;99.90
31391;DHT22;18022;45.492;11.548;2022-11-13T04:14:11;8.60;99.90
31391;DHT22;18022;45.492;11.548;2022-11-13T04:16:37;8.60;99.90
31391;DHT22;18022;45.492;11.548;2022-11-13T04:19:03;8.50;99.90
31391;DHT22;18022;45.492;11.548;2022-11-13T04:21:28;8.50;99.90
31391;DHT22;18022;45.492;11.548;2022-11-13T04:23:54;8.40;99.90
31391;DHT22;18022;45.492;11.548;2022-11-13T04:26:20;8.20;99.90
31391;DHT22;18022;45.492;11.548;2022-11-13T04:28:45;8.10;99.90
31391;DHT22;18022;45.492;11.548;2022-11-13T04:31:11;8.20;99.90
31391;DHT22;18022;45.492;11.548;2022-11-13T04:33:37;8.30;99.90
31391;DHT22;18022;45.492;11.548;2022-11-13T04:36:03;8.50;99.90
31391;DHT22;18022;45.492;11.548;2022-11-13T04:38:28;8.30;99.90
31391;DHT22;18022;45.492;11.548;2022-11-13T04:40:54;8.10;99.90
31391;DHT22;18022;45.492;11.548;2022-11-13T04:43:40;7.80;99.90
31391;DHT22;18022;45.492;11.548;2022-11-13T04:46:06;7.80;99.90
31391;DHT22;18022;45.492;11.548;2022-11-13T04:48:32;7.80;99.90
31391;DHT22;18022;45.492;11.548;2022-11-13T04:50:57;8.00;99.90
31391;DHT22;18022;45.492;11.548;2022-11-13T04:53:23;8.10;99.90
31391;DHT22;18022;45.492;11.548;2022-11-13T04:55:51;8.10;99.90
31391;DHT22;18022;45.492;11.548;2022-11-13T04:58:17;8.10;99.90
31391;DHT22;18022;45.492;11.548;2022-11-13T05:00:43;8.10;99.90
31391;DHT22;18022;45.492;11.548;2022-11-13T05:03:09;8.20;99.90
31391;DHT22;18022;45.492;11.548;2022-11-13T05:05:34;8.10;99.90
31391;DHT22;18022;45.492;11.548;2022-11-13T05:08:00;8.10;99.90
31391;DHT22;18022;45.492;11.548;2022-11-13T05:10:26;8.10;99.90
31391;DHT22;18022;45.492;11.548;2022-11-13T05:12:55;8.20;99.90
31391;DHT22;18022;45.492;11.548;2022-11-13T05:15:21;8.20;99.90
31391;DHT22;18022;45.492;11.548;2022-11-13T05:17:48;8.20;99.90
31391;DHT22;18022;45.492;11.548;2022-11-13T05:20:13;8.30;99.90
31391;DHT22;18022;45.492;11.548;2022-11-13T05:22:39;8.20;99.90
31391;DHT22;18022;45.492;11.548;2022-11-13T05:25:05;8.20;99.90
31391;DHT22;18022;45.492;11.548;2022-11-13T05:27:31;8.10;99.90
31391;DHT22;18022;45.492;11.548;2022-11-13T05:29:56;8.00;99.90
31391;DHT22;18022;45.492;11.548;2022-11-13T05:32:22;8.00;99.90
31391;DHT22;18022;45.492;11.548;2022-11-13T05:34:48;8.10;99.90
31391;DHT22;18022;45.492;11.548;2022-11-13T05:37:14;8.20;99.90
31391;DHT22;18022;45.492;11.548;2022-11-13T05:39:39;8.30;99.90
31391;DHT22;18022;45.492;11.548;2022-11-13T05:42:05;8.20;99.90
31391;DHT22;18022;45.492;11.548;2022-11-13T05:44:31;8.10;99.90
31391;DHT22;18022;45.492;11.548;2022-11-13T05:46:56;7.70;99.90
31391;DHT22;18022;45.492;11.548;2022-11-13T05:49:22;7.60;99.90
31391;DHT22;18022;45.492;11.548;2022-11-13T05:51:48;7.60;99.90
31391;DHT22;18022;45.492;11.548;2022-11-13T05:54:13;7.30;99.90
31391;DHT22;18022;45.492;11.548;2022-11-13T05:56:39;7.60;99.90
31391;DHT22;18022;45.492;11.548;2022-11-13T05:59:05;7.70;99.90
31391;DHT22;18022;45.492;11.548;2022-11-13T06:01:33;7.70;99.90
31391;DHT22;18022;45.492;11.548;2022-11-13T06:04:00;7.80;99.90
31391;DHT22;18022;45.492;11.548;2022-11-13T06:06:27;7.90;99.90
31391;DHT22;18022;45.492;11.548;2022-11-13T06:08:54;7.80;99.90
31391;DHT22;18022;45.492;11.548;2022-11-13T06:11:22;7.70;99.90
31391;DHT22;18022;45.492;11.548;2022-11-13T06:13:49;7.50;99.90
31391;DHT22;18022;45.492;11.548;2022-11-13T06:16:23;7.50;99.90
31391;DHT22;18022;45.492;11.548;2022-11-13T06:18:49;7.70;99.90
31391;DHT22;18022;45.492;11.548;2022-11-13T06:21:20;7.70;99.90
31391;DHT22;18022;45.492;11.548;2022-11-13T06:23:46;7.70;99.90
31391;DHT22;18022;45.492;11.548;2022-11-13T06:26:15;7.70;99.90
31391;DHT22;18022;45.492;11.548;2022-11-13T06:28:41;7.40;99.90
31391;DHT22;18022;45.492;11.548;2022-11-13T06:31:12;7.40;99.90
31391;DHT22;18022;45.492;11.548;2022-11-13T06:33:39;7.30;99.90
31391;DHT22;18022;45.492;11.548;2022-11-13T06:36:13;7.30;99.90
31391;DHT22;18022;45.492;11.548;2022-11-13T06:38:40;7.30;99.90
31391;DHT22;18022;45.492;11.548;2022-11-13T06:41:08;7.30;99.90
31391;DHT22;18022;45.492;11.548;2022-11-13T06:43:34;7.40;99.90
31391;DHT22;18022;45.492;11.548;2022-11-13T06:46:13;7.40;99.90
31391;DHT22;18022;45.492;11.548;2022-11-13T06:48:39;7.50;99.90
31391;DHT22;18022;45.492;11.548;2022-11-13T06:51:08;7.40;99.90
31391;DHT22;18022;45.492;11.548;2022-11-13T06:53:34;7.40;99.90
31391;DHT22;18022;45.492;11.548;2022-11-13T06:56:00;7.40;99.90
31391;DHT22;18022;45.492;11.548;2022-11-13T06:58:26;7.50;99.90
31391;DHT22;18022;45.492;11.548;2022-11-13T07:00:52;7.50;99.90
31391;DHT22;18022;45.492;11.548;2022-11-13T07:03:20;7.50;99.90
31391;DHT22;18022;45.492;11.548;2022-11-13T07:05:46;7.50;99.90
31391;DHT22;18022;45.492;11.548;2022-11-13T07:08:13;7.50;99.90
31391;DHT22;18022;45.492;11.548;2022-11-13T07:10:39;7.70;99.90
31391;DHT22;18022;45.492;11.548;2022-11-13T07:13:05;7.80;99.90
31391;DHT22;18022;45.492;11.548;2022-11-13T07:15:37;7.90;99.90
31391;DHT22;18022;45.492;11.548;2022-11-13T07:18:04;8.00;99.90
31391;DHT22;18022;45.492;11.548;2022-11-13T07:20:30;8.00;99.90
31391;DHT22;18022;45.492;11.548;2022-11-13T07:22:57;7.90;99.90
31391;DHT22;18022;45.492;11.548;2022-11-13T07:25:24;8.10;99.90
31391;DHT22;18022;45.492;11.548;2022-11-13T07:27:50;8.20;99.90
31391;DHT22;18022;45.492;11.548;2022-11-13T07:30:16;8.30;99.90
31391;DHT22;18022;45.492;11.548;2022-11-13T07:32:42;8.50;99.90
31391;DHT22;18022;45.492;11.548;2022-11-13T07:35:08;8.50;99.90
31391;DHT22;18022;45.492;11.548;2022-11-13T07:37:33;8.60;99.90
31391;DHT22;18022;45.492;11.548;2022-11-13T07:40:00;8.60;99.90
31391;DHT22;18022;45.492;11.548;2022-11-13T07:42:25;8.70;99.90
31391;DHT22;18022;45.492;11.548;2022-11-13T07:44:51;8.80;99.90
31391;DHT22;18022;45.492;11.548;2022-11-13T07:47:17;8.90;99.90
31391;DHT22;18022;45.492;11.548;2022-11-13T07:49:43;9.00;99.90
31391;DHT22;18022;45.492;11.548;2022-11-13T07:52:08;9.20;99.90
31391;DHT22;18022;45.492;11.548;2022-11-13T07:54:34;9.40;99.90
31391;DHT22;18022;45.492;11.548;2022-11-13T07:57:00;9.60;99.90
31391;DHT22;18022;45.492;11.548;2022-11-13T07:59:25;9.70;99.90
31391;DHT22;18022;45.492;11.548;2022-11-13T08:01:51;9.90;99.90
31391;DHT22;18022;45.492;11.548;2022-11-13T08:04:17;10.00;99.90
31391;DHT22;18022;45.492;11.548;2022-11-13T08:06:42;10.30;99.90
31391;DHT22;18022;45.492;11.548;2022-11-13T08:09:08;10.50;99.90
31391;DHT22;18022;45.492;11.548;2022-11-13T08:11:34;10.70;99.90
31391;DHT22;18022;45.492;11.548;2022-11-13T08:14:00;10.90;99.90
31391;DHT22;18022;45.492;11.548;2022-11-13T08:16:26;11.00;99.90
31391;DHT22;18022;45.492;11.548;2022-11-13T08:18:52;11.10;99.90
31391;DHT22;18022;45.492;11.548;2022-11-13T08:21:18;11.30;99.90
31391;DHT22;18022;45.492;11.548;2022-11-13T08:23:46;11.40;99.90
31391;DHT22;18022;45.492;11.548;2022-11-13T08:26:12;11.60;99.90
31391;DHT22;18022;45.492;11.548;2022-11-13T08:28:38;11.70;99.90
31391;DHT22;18022;45.492;11.548;2022-11-13T08:31:12;11.70;99.90
31391;DHT22;18022;45.492;11.548;2022-11-13T08:33:38;12.00;99.90
31391;DHT22;18022;45.492;11.548;2022-11-13T08:36:04;12.10;99.90
31391;DHT22;18022;45.492;11.548;2022-11-13T08:38:30;12.20;99.90
31391;DHT22;18022;45.492;11.548;2022-11-13T08:40:59;12.40;99.90
31391;DHT22;18022;45.492;11.548;2022-11-13T08:43:26;12.50;99.90
31391;DHT22;18022;45.492;11.548;2022-11-13T08:45:52;12.50;99.90
31391;DHT22;18022;45.492;11.548;2022-11-13T08:48:18;12.60;99.90
31391;DHT22;18022;45.492;11.548;2022-11-13T08:50:44;12.70;99.90
31391;DHT22;18022;45.492;11.548;2022-11-13T08:53:10;12.80;99.90
31391;DHT22;18022;45.492;11.548;2022-11-13T08:55:36;12.90;99.90
31391;DHT22;18022;45.492;11.548;2022-11-13T08:58:03;12.90;99.90
31391;DHT22;18022;45.492;11.548;2022-11-13T09:00:30;13.10;99.90
31391;DHT22;18022;45.492;11.548;2022-11-13T09:02:57;13.10;99.90
31391;DHT22;18022;45.492;11.548;2022-11-13T09:05:23;13.30;99.90
31391;DHT22;18022;45.492;11.548;2022-11-13T09:07:50;13.50;99.90
31391;DHT22;18022;45.492;11.548;2022-11-13T09:10:16;13.50;99.90
31391;DHT22;18022;45.492;11.548;2022-11-13T09:12:43;13.50;99.90
31391;DHT22;18022;45.492;11.548;2022-11-13T09:15:09;13.60;99.90
31391;DHT22;18022;45.492;11.548;2022-11-13T09:17:35;13.60;99.90
31391;DHT22;18022;45.492;11.548;2022-11-13T09:20:01;13.50;99.90
31391;DHT22;18022;45.492;11.548;2022-11-13T09:22:27;13.70;99.90
31391;DHT22;18022;45.492;11.548;2022-11-13T09:24:53;13.80;99.90
31391;DHT22;18022;45.492;11.548;2022-11-13T09:27:19;13.90;99.90
31391;DHT22;18022;45.492;11.548;2022-11-13T09:29:45;13.90;99.90
31391;DHT22;18022;45.492;11.548;2022-11-13T09:32:10;14.00;99.90
31391;DHT22;18022;45.492;11.548;2022-11-13T09:34:36;14.00;99.90
31391;DHT22;18022;45.492;11.548;2022-11-13T09:37:02;14.10;99.90
31391;DHT22;18022;45.492;11.548;2022-11-13T09:39:28;14.20;99.90
31391;DHT22;18022;45.492;11.548;2022-11-13T09:41:56;14.10;99.90
31391;DHT22;18022;45.492;11.548;2022-11-13T09:47:14;14.40;99.90
31391;DHT22;18022;45.492;11.548;2022-11-13T09:49:58;14.60;99.90
31391;DHT22;18022;45.492;11.548;2022-11-13T09:52:51;14.70;99.90
31391;DHT22;18022;45.492;11.548;2022-11-13T09:55:21;15.00;99.90
31391;DHT22;18022;45.492;11.548;2022-11-13T09:58:06;14.90;99.90
31391;DHT22;18022;45.492;11.548;2022-11-13T10:00:36;15.20;99.90
31391;DHT22;18022;45.492;11.548;2022-11-13T10:03:22;15.10;99.90
31391;DHT22;18022;45.492;11.548;2022-11-13T10:13:48;15.10;99.90
31391;DHT22;18022;45.492;11.548;2022-11-13T10:22:10;15.40;99.90
31391;DHT22;18022;45.492;11.548;2022-11-13T10:24:50;15.40;99.90
31391;DHT22;18022;45.492;11.548;2022-11-13T10:27:18;15.50;99.90
31391;DHT22;18022;45.492;11.548;2022-11-13T10:29:44;15.60;99.90
31391;DHT22;18022;45.492;11.548;2022-11-13T10:34:49;15.30;99.90
31391;DHT22;18022;45.492;11.548;2022-11-13T10:40:05;15.30;99.90
31391;DHT22;18022;45.492;11.548;2022-11-13T10:42:40;15.30;99.90
31391;DHT22;18022;45.492;11.548;2022-11-13T10:45:18;15.40;99.90
31391;DHT22;18022;45.492;11.548;2022-11-13T10:47:49;15.40;99.90
31391;DHT22;18022;45.492;11.548;2022-11-13T10:50:22;15.50;99.90
31391;DHT22;18022;45.492;11.548;2022-11-13T10:52:49;15.70;99.90
31391;DHT22;18022;45.492;11.548;2022-11-13T10:58:08;16.20;99.70
31391;DHT22;18022;45.492;11.548;2022-11-13T11:00:36;16.30;99.90
31391;DHT22;18022;45.492;11.548;2022-11-13T11:03:06;16.40;99.50
31391;DHT22;18022;45.492;11.548;2022-11-13T11:05:32;16.40;99.80
31391;DHT22;18022;45.492;11.548;2022-11-13T11:07:58;16.50;99.50
31391;DHT22;18022;45.492;11.548;2022-11-13T11:10:35;16.30;99.50
31391;DHT22;18022;45.492;11.548;2022-11-13T11:15:43;16.50;99.90
31391;DHT22;18022;45.492;11.548;2022-11-13T11:18:19;16.30;99.40
31391;DHT22;18022;45.492;11.548;2022-11-13T11:20:55;16.60;99.00
31391;DHT22;18022;45.492;11.548;2022-11-13T11:26:01;16.80;98.70
31391;DHT22;18022;45.492;11.548;2022-11-13T11:28:42;16.60;98.00
31391;DHT22;18022;45.492;11.548;2022-11-13T11:31:55;16.50;98.30
31391;DHT22;18022;45.492;11.548;2022-11-13T11:34:33;16.30;99.10
31391;DHT22;18022;45.492;11.548;2022-11-13T11:37:20;16.50;98.60
31391;DHT22;18022;45.492;11.548;2022-11-13T11:39:54;16.30;98.50
31391;DHT22;18022;45.492;11.548;2022-11-13T11:42:44;16.50;99.50
31391;DHT22;18022;45.492;11.548;2022-11-13T11:45:25;16.70;98.40
31391;DHT22;18022;45.492;11.548;2022-11-13T11:47:52;16.50;98.40
31391;DHT22;18022;45.492;11.548;2022-11-13T12:00:48;16.10;99.00
31391;DHT22;18022;45.492;11.548;2022-11-13T12:09:27;16.70;98.90
31391;DHT22;18022;45.492;11.548;2022-11-13T12:28:28;16.10;98.90
31391;DHT22;18022;45.492;11.548;2022-11-13T12:31:28;16.00;99.40
31391;DHT22;18022;45.492;11.548;2022-11-13T12:34:21;15.80;99.00
31391;DHT22;18022;45.492;11.548;2022-11-13T12:36:49;15.90;99.00
31391;DHT22;18022;45.492;11.548;2022-11-13T12:45:01;15.70;99.10
31391;DHT22;18022;45.492;11.548;2022-11-13T12:47:34;15.70;99.00
31391;DHT22;18022;45.492;11.548;2022-11-13T12:50:04;15.90;99.50
31391;DHT22;18022;45.492;11.548;2022-11-13T12:52:30;15.90;99.50
31391;DHT22;18022;45.492;11.548;2022-11-13T12:55:22;15.90;99.10
31391;DHT22;18022;45.492;11.548;2022-11-13T12:57:48;15.70;99.80
31391;DHT22;18022;45.492;11.548;2022-11-13T13:00:34;15.50;99.90
31391;DHT22;18022;45.492;11.548;2022-11-13T13:08:59;16.10;99.90
31391;DHT22;18022;45.492;11.548;2022-11-13T13:11:50;15.80;99.70
31391;DHT22;18022;45.492;11.548;2022-11-13T13:19:40;15.90;99.80
31391;DHT22;18022;45.492;11.548;2022-11-13T13:27:35;15.80;99.90
31391;DHT22;18022;45.492;11.548;2022-11-13T13:30:19;15.70;99.90
31391;DHT22;18022;45.492;11.548;2022-11-13T13:32:53;15.60;99.90
31391;DHT22;18022;45.492;11.548;2022-11-13T13:38:33;15.50;99.90
31391;DHT22;18022;45.492;11.548;2022-11-13T13:41:15;15.50;99.90
31391;DHT22;18022;45.492;11.548;2022-11-13T13:46:30;15.40;99.90
31391;DHT22;18022;45.492;11.548;2022-11-13T13:49:05;15.40;99.90
31391;DHT22;18022;45.492;11.548;2022-11-13T13:51:57;15.30;99.90
31391;DHT22;18022;45.492;11.548;2022-11-13T13:54:26;15.80;99.90
31391;DHT22;18022;45.492;11.548;2022-11-13T13:56:55;15.50;99.90
31391;DHT22;18022;45.492;11.548;2022-11-13T13:59:32;15.30;99.90
31391;DHT22;18022;45.492;11.548;2022-11-13T14:02:03;15.10;99.90
31391;DHT22;18022;45.492;11.548;2022-11-13T14:04:33;14.90;99.90
31391;DHT22;18022;45.492;11.548;2022-11-13T14:07:01;14.90;99.90
31391;DHT22;18022;45.492;11.548;2022-11-13T14:09:28;14.90;99.90
31391;DHT22;18022;45.492;11.548;2022-11-13T14:12:06;14.90;99.90
31391;DHT22;18022;45.492;11.548;2022-11-13T14:14:32;14.80;99.90
31391;DHT22;18022;45.492;11.548;2022-11-13T14:16:59;14.60;99.90
31391;DHT22;18022;45.492;11.548;2022-11-13T14:19:26;14.60;99.90
31391;DHT22;18022;45.492;11.548;2022-11-13T14:22:01;14.60;99.90
31391;DHT22;18022;45.492;11.548;2022-11-13T14:24:55;14.50;99.90
31391;DHT22;18022;45.492;11.548;2022-11-13T14:27:25;14.50;99.90
31391;DHT22;18022;45.492;11.548;2022-11-13T14:29:54;14.50;99.90
31391;DHT22;18022;45.492;11.548;2022-11-13T14:32:32;14.50;99.90
31391;DHT22;18022;45.492;11.548;2022-11-13T14:35:00;14.50;99.90
31391;DHT22;18022;45.492;11.548;2022-11-13T14:40:00;14.50;99.90
31391;DHT22;18022;45.492;11.548;2022-11-13T14:42:27;14.60;99.90
31391;DHT22;18022;45.492;11.548;2022-11-13T14:45:26;14.60;99.90
31391;DHT22;18022;45.492;11.548;2022-11-13T14:48:20;14.50;99.90
31391;DHT22;18022;45.492;11.548;2022-11-13T14:55:58;14.50;99.90
31391;DHT22;18022;45.492;11.548;2022-11-13T14:58:27;14.40;99.90
31391;DHT22;18022;45.492;11.548;2022-11-13T15:00:54;14.30;99.90
31391;DHT22;18022;45.492;11.548;2022-11-13T15:03:22;14.20;99.90
31391;DHT22;18022;45.492;11.548;2022-11-13T15:05:47;14.20;99.90
31391;DHT22;18022;45.492;11.548;2022-11-13T15:08:13;14.50;99.90
31391;DHT22;18022;45.492;11.548;2022-11-13T15:10:40;14.80;99.90
31391;DHT22;18022;45.492;11.548;2022-11-13T15:13:13;14.90;99.90
31391;DHT22;18022;45.492;11.548;2022-11-13T15:15:39;15.20;99.90
31391;DHT22;18022;45.492;11.548;2022-11-13T15:18:06;15.20;99.90
31391;DHT22;18022;45.492;11.548;2022-11-13T15:20:34;15.00;99.90
31391;DHT22;18022;45.492;11.548;2022-11-13T15:22:59;14.60;99.90
31391;DHT22;18022;45.492;11.548;2022-11-13T15:25:25;14.30;99.90
31391;DHT22;18022;45.492;11.548;2022-11-13T15:27:51;14.10;99.90
31391;DHT22;18022;45.492;11.548;2022-11-13T15:30:17;14.10;99.90
31391;DHT22;18022;45.492;11.548;2022-11-13T15:32:44;14.00;99.90
31391;DHT22;18022;45.492;11.548;2022-11-13T15:35:14;13.70;99.90
31391;DHT22;18022;45.492;11.548;2022-11-13T15:37:39;13.70;99.90
31391;DHT22;18022;45.492;11.548;2022-11-13T15:40:06;13.60;99.90
31391;DHT22;18022;45.492;11.548;2022-11-13T15:42:33;13.60;99.90
31391;DHT22;18022;45.492;11.548;2022-11-13T15:45:00;14.00;99.90
31391;DHT22;18022;45.492;11.548;2022-11-13T15:47:28;14.00;99.90
31391;DHT22;18022;45.492;11.548;2022-11-13T15:49:55;13.70;99.90
31391;DHT22;18022;45.492;11.548;2022-11-13T15:52:21;13.60;99.90
31391;DHT22;18022;45.492;11.548;2022-11-13T15:54:48;13.50;99.90
31391;DHT22;18022;45.492;11.548;2022-11-13T15:57:23;13.40;99.90
31391;DHT22;18022;45.492;11.548;2022-11-13T15:59:49;13.40;99.90
31391;DHT22;18022;45.492;11.548;2022-11-13T16:02:15;13.30;99.90
31391;DHT22;18022;45.492;11.548;2022-11-13T16:04:41;13.30;99.90
31391;DHT22;18022;45.492;11.548;2022-11-13T16:07:20;13.30;99.90
31391;DHT22;18022;45.492;11.548;2022-11-13T16:09:47;13.20;99.90
31391;DHT22;18022;45.492;11.548;2022-11-13T16:12:13;13.10;99.90
31391;DHT22;18022;45.492;11.548;2022-11-13T16:14:39;13.10;99.90
31391;DHT22;18022;45.492;11.548;2022-11-13T16:17:10;13.00;99.90
31391;DHT22;18022;45.492;11.548;2022-11-13T16:19:37;13.00;99.90
31391;DHT22;18022;45.492;11.548;2022-11-13T16:22:18;13.00;99.90
31391;DHT22;18022;45.492;11.548;2022-11-13T16:24:43;13.00;99.90
31391;DHT22;18022;45.492;11.548;2022-11-13T16:27:13;13.00;99.90
31391;DHT22;18022;45.492;11.548;2022-11-13T16:29:39;13.00;99.90
31391;DHT22;18022;45.492;11.548;2022-11-13T16:32:07;13.10;99.90
31391;DHT22;18022;45.492;11.548;2022-11-13T16:34:34;13.10;99.90
31391;DHT22;18022;45.492;11.548;2022-11-13T16:37:00;13.00;99.90
31391;DHT22;18022;45.492;11.548;2022-11-13T16:39:25;12.90;99.90
31391;DHT22;18022;45.492;11.548;2022-11-13T16:41:51;12.80;99.90
31391;DHT22;18022;45.492;11.548;2022-11-13T16:44:17;12.80;99.90
31391;DHT22;18022;45.492;11.548;2022-11-13T16:46:44;12.70;99.90
31391;DHT22;18022;45.492;11.548;2022-11-13T16:49:14;12.80;99.90
31391;DHT22;18022;45.492;11.548;2022-11-13T16:51:45;12.70;99.90
31391;DHT22;18022;45.492;11.548;2022-11-13T16:54:12;12.70;99.90
31391;DHT22;18022;45.492;11.548;2022-11-13T16:56:37;12.60;99.90
31391;DHT22;18022;45.492;11.548;2022-11-13T16:59:03;12.60;99.90
31391;DHT22;18022;45.492;11.548;2022-11-13T17:01:29;12.50;99.90
31391;DHT22;18022;45.492;11.548;2022-11-13T17:03:55;12.50;99.90
31391;DHT22;18022;45.492;11.548;2022-11-13T17:08:51;12.40;99.90
31391;DHT22;18022;45.492;11.548;2022-11-13T17:11:18;12.40;99.90
31391;DHT22;18022;45.492;11.548;2022-11-13T17:13:57;12.40;99.90
31391;DHT22;18022;45.492;11.548;2022-11-13T17:16:24;12.40;99.90